createdAt,value
2019-01-16T00:00:49.945Z,7.00
2019-01-16T00:02:13.152Z,7.00
2019-01-16T00:03:27.938Z,7.00
2019-01-16T00:05:10.769Z,7.00
2019-01-16T00:06:33.660Z,7.00
2019-01-16T00:07:57.300Z,7.00
2019-01-16T00:09:33.322Z,7.00
2019-01-16T00:10:55.786Z,7.00
2019-01-16T00:12:19.682Z,7.00
2019-01-16T00:13:44.155Z,6.90
2019-01-16T00:14:58.539Z,6.90
2019-01-16T00:16:10.159Z,6.90
2019-01-16T00:17:34.643Z,6.90
2019-01-16T00:19:08.216Z,6.90
2019-01-16T00:20:31.346Z,6.90
2019-01-16T00:21:58.202Z,6.90
2019-01-16T00:23:15.228Z,6.90
2019-01-16T00:24:36.082Z,6.90
2019-01-16T00:25:58.479Z,6.90
2019-01-16T00:27:25.319Z,6.90
2019-01-16T00:28:52.666Z,6.80
2019-01-16T00:30:31.787Z,6.80
2019-01-16T00:32:05.119Z,6.80
2019-01-16T00:33:18.729Z,6.80
2019-01-16T00:34:54.852Z,6.80
2019-01-16T00:36:17.223Z,6.80
2019-01-16T00:37:59.576Z,6.80
2019-01-16T00:39:18.167Z,6.80
2019-01-16T00:40:45.136Z,6.80
2019-01-16T00:42:09.287Z,6.80
2019-01-16T00:43:37.554Z,6.80
2019-01-16T00:45:00.235Z,6.80
2019-01-16T00:46:27.473Z,6.80
2019-01-16T00:47:51.718Z,6.80
2019-01-16T00:49:10.172Z,6.80
2019-01-16T00:50:40.367Z,6.80
2019-01-16T00:52:10.432Z,6.80
2019-01-16T00:53:37.832Z,6.80
2019-01-16T00:54:59.658Z,6.80
2019-01-16T00:56:27.271Z,6.80
2019-01-16T00:58:00.327Z,6.80
2019-01-16T00:59:39.762Z,6.80
2019-01-16T01:01:09.885Z,6.80
2019-01-16T01:02:40.042Z,6.70
2019-01-16T01:04:09.841Z,6.80
2019-01-16T01:05:40.160Z,6.80
2019-01-16T01:07:07.483Z,6.80
2019-01-16T01:08:29.222Z,6.80
2019-01-16T01:09:51.976Z,6.70
2019-01-16T01:11:14.586Z,6.80
2019-01-16T01:12:28.799Z,6.80
2019-01-16T01:13:39.785Z,6.70
2019-01-16T01:15:18.723Z,6.70
2019-01-16T01:16:50.812Z,6.80
2019-01-16T01:18:40.463Z,6.80
2019-01-16T01:20:09.687Z,6.70
2019-01-16T01:21:39.570Z,6.70
2019-01-16T01:23:06.350Z,6.70
2019-01-16T01:24:29.332Z,6.80
2019-01-16T01:25:53.697Z,6.70
2019-01-16T01:27:10.906Z,6.70
2019-01-16T01:28:33.440Z,6.70
2019-01-16T01:30:06.394Z,6.70
2019-01-16T01:31:45.636Z,6.70
2019-01-16T01:33:18.190Z,6.70
2019-01-16T01:34:42.916Z,6.70
2019-01-16T01:36:17.286Z,6.60
2019-01-16T01:37:44.067Z,6.60
2019-01-16T01:39:01.577Z,6.60
2019-01-16T01:40:32.909Z,6.60
2019-01-16T01:42:14.838Z,6.60
2019-01-16T01:43:37.604Z,6.60
2019-01-16T01:44:58.997Z,6.60
2019-01-16T01:46:38.455Z,6.60
2019-01-16T01:47:50.623Z,6.60
2019-01-16T01:49:13.180Z,6.60
2019-01-16T01:50:37.238Z,6.60
2019-01-16T01:52:01.390Z,6.60
2019-01-16T01:53:34.402Z,6.60
2019-01-16T01:54:57.212Z,6.60
2019-01-16T01:56:20.127Z,6.60
2019-01-16T01:57:49.989Z,6.60
2019-01-16T01:59:16.767Z,6.60
2019-01-16T02:00:47.004Z,6.60
2019-01-16T02:02:20.256Z,6.60
2019-01-16T02:03:42.966Z,6.60
2019-01-16T02:05:12.473Z,6.60
2019-01-16T02:06:39.263Z,6.60
2019-01-16T02:08:06.227Z,6.60
2019-01-16T02:09:48.286Z,6.60
2019-01-16T02:11:13.718Z,6.60
2019-01-16T02:12:37.428Z,6.60
2019-01-16T02:14:07.897Z,6.60
2019-01-16T02:15:34.971Z,6.60
2019-01-16T02:16:57.865Z,6.60
2019-01-16T02:18:16.095Z,6.60
2019-01-16T02:19:42.824Z,6.60
2019-01-16T02:21:07.264Z,6.60
2019-01-16T02:22:29.690Z,6.60
2019-01-16T02:23:59.766Z,6.60
2019-01-16T02:25:33.754Z,6.60
2019-01-16T02:26:56.125Z,6.60
2019-01-16T02:28:26.363Z,6.60
2019-01-16T02:29:45.749Z,6.60
2019-01-16T02:31:13.114Z,6.60
2019-01-16T02:32:30.566Z,6.60
2019-01-16T02:33:58.272Z,6.60
2019-01-16T02:35:29.158Z,6.60
2019-01-16T02:37:02.650Z,6.60
2019-01-16T02:38:25.225Z,6.60
2019-01-16T02:39:47.716Z,6.60
2019-01-16T02:41:26.778Z,6.60
2019-01-16T02:42:59.588Z,6.60
2019-01-16T02:44:14.787Z,6.60
2019-01-16T02:45:36.956Z,6.60
2019-01-16T02:47:09.934Z,6.60
2019-01-16T02:48:55.858Z,6.70
2019-01-16T02:50:16.586Z,6.60
2019-01-16T02:51:52.839Z,6.70
2019-01-16T02:53:29.030Z,6.60
2019-01-16T02:54:51.610Z,6.70
2019-01-16T02:56:12.978Z,6.70
2019-01-16T02:57:40.631Z,6.70
2019-01-16T02:59:13.969Z,6.70
2019-01-16T03:00:28.001Z,6.70
2019-01-16T03:01:48.078Z,6.70
2019-01-16T03:03:18.040Z,6.70
2019-01-16T03:04:57.126Z,6.70
2019-01-16T03:06:20.005Z,6.60
2019-01-16T03:07:45.256Z,6.60
2019-01-16T03:08:58.297Z,6.60
2019-01-16T03:10:31.753Z,6.60
2019-01-16T03:11:54.668Z,6.60
2019-01-16T03:13:24.614Z,6.60
2019-01-16T03:14:58.065Z,6.60
2019-01-16T03:16:29.381Z,6.60
2019-01-16T03:17:57.044Z,6.60
2019-01-16T03:19:20.090Z,6.60
2019-01-16T03:20:43.465Z,6.60
2019-01-16T03:22:05.760Z,6.60
2019-01-16T03:23:31.810Z,6.60
2019-01-16T03:24:48.897Z,6.60
2019-01-16T03:26:04.970Z,6.60
2019-01-16T03:27:25.426Z,6.50
2019-01-16T03:28:48.257Z,6.50
2019-01-16T03:30:01.892Z,6.60
2019-01-16T03:31:26.707Z,6.60
2019-01-16T03:32:56.589Z,6.60
2019-01-16T03:34:29.715Z,6.50
2019-01-16T03:36:05.886Z,6.50
2019-01-16T03:37:28.491Z,6.50
2019-01-16T03:38:49.660Z,6.50
2019-01-16T03:40:12.608Z,6.50
2019-01-16T03:41:22.966Z,6.50
2019-01-16T03:42:45.734Z,6.50
2019-01-16T03:44:21.904Z,6.50
2019-01-16T03:45:48.740Z,6.50
2019-01-16T03:47:21.869Z,6.50
2019-01-16T03:48:46.087Z,6.40
2019-01-16T03:50:24.935Z,6.40
2019-01-16T03:51:57.708Z,6.40
2019-01-16T03:53:20.159Z,6.40
2019-01-16T03:54:36.177Z,6.40
2019-01-16T03:55:58.270Z,6.40
2019-01-16T03:57:15.887Z,6.40
2019-01-16T03:58:45.915Z,6.30
2019-01-16T04:00:09.479Z,6.40
2019-01-16T04:01:30.247Z,6.30
2019-01-16T04:03:06.404Z,6.30
2019-01-16T04:04:21.715Z,6.30
2019-01-16T04:05:50.816Z,6.30
2019-01-16T04:07:13.384Z,6.30
2019-01-16T04:08:36.038Z,6.30
2019-01-16T04:10:08.819Z,6.30
2019-01-16T04:11:28.486Z,6.30
2019-01-16T04:12:51.467Z,6.30
2019-01-16T04:14:15.935Z,6.30
2019-01-16T04:15:55.268Z,6.30
2019-01-16T04:17:19.302Z,6.40
2019-01-16T04:18:46.144Z,6.40
2019-01-16T04:20:06.023Z,6.40
2019-01-16T04:21:28.291Z,6.40
2019-01-16T04:22:48.006Z,6.40
2019-01-16T04:24:10.722Z,6.40
2019-01-16T04:25:32.920Z,6.40
2019-01-16T04:27:12.075Z,6.40
2019-01-16T04:28:25.072Z,6.40
2019-01-16T04:29:53.727Z,6.40
2019-01-16T04:31:33.552Z,6.40
2019-01-16T04:33:06.935Z,6.40
2019-01-16T04:34:46.000Z,6.40
2019-01-16T04:36:08.832Z,6.40
2019-01-16T04:37:42.196Z,6.50
2019-01-16T04:39:08.688Z,6.50
2019-01-16T04:40:35.219Z,6.50
2019-01-16T04:41:57.108Z,6.50
2019-01-16T04:43:28.695Z,6.50
2019-01-16T04:44:46.208Z,6.50
2019-01-16T04:46:07.305Z,6.50
2019-01-16T04:47:28.426Z,6.50
2019-01-16T04:49:10.498Z,6.50
2019-01-16T04:50:26.602Z,6.50
2019-01-16T04:51:37.667Z,6.50
2019-01-16T04:53:07.704Z,6.50
2019-01-16T04:54:22.258Z,6.50
2019-01-16T04:55:44.750Z,6.50
2019-01-16T04:57:14.257Z,6.50
2019-01-16T04:58:43.830Z,6.50
2019-01-16T05:00:08.207Z,6.50
2019-01-16T05:01:30.611Z,6.60
2019-01-16T05:02:54.429Z,6.50
2019-01-16T05:04:33.827Z,6.60
2019-01-16T05:05:50.195Z,6.60
2019-01-16T05:07:20.683Z,6.60
2019-01-16T05:09:06.000Z,6.60
2019-01-16T05:10:23.649Z,6.50
2019-01-16T05:11:46.192Z,6.60
2019-01-16T05:13:10.309Z,6.60
2019-01-16T05:14:40.097Z,6.60
2019-01-16T05:16:01.233Z,6.60
2019-01-16T05:17:24.041Z,6.60
2019-01-16T05:18:56.637Z,6.60
2019-01-16T05:20:19.423Z,6.60
2019-01-16T05:21:52.515Z,6.60
2019-01-16T05:23:16.495Z,6.60
2019-01-16T05:24:32.841Z,6.70
2019-01-16T05:26:06.333Z,6.60
2019-01-16T05:27:29.211Z,6.60
2019-01-16T05:28:47.802Z,6.60
2019-01-16T05:30:15.234Z,6.60
2019-01-16T05:31:38.199Z,6.60
2019-01-16T05:32:50.290Z,6.60
2019-01-16T05:34:01.247Z,6.60
2019-01-16T05:35:26.139Z,6.60
2019-01-16T05:36:55.938Z,6.70
2019-01-16T05:38:19.796Z,6.70
2019-01-16T05:39:52.987Z,6.70
2019-01-16T05:41:26.882Z,6.70
2019-01-16T05:42:54.045Z,6.70
2019-01-16T05:44:20.696Z,6.70
2019-01-16T05:45:43.704Z,6.70
2019-01-16T05:47:06.278Z,6.70
2019-01-16T05:48:28.781Z,6.70
2019-01-16T05:49:47.139Z,6.70
2019-01-16T05:51:17.393Z,6.70
2019-01-16T05:52:56.618Z,6.70
2019-01-16T05:54:23.171Z,6.70
2019-01-16T05:55:38.092Z,6.70
2019-01-16T05:57:08.329Z,6.70
2019-01-16T05:58:32.476Z,6.70
2019-01-16T06:00:02.544Z,6.70
2019-01-16T06:01:26.874Z,6.70
2019-01-16T06:02:55.857Z,6.70
2019-01-16T06:04:23.035Z,6.80
2019-01-16T06:05:44.689Z,6.80
2019-01-16T06:07:13.404Z,6.70
2019-01-16T06:08:43.547Z,6.80
2019-01-16T06:10:07.547Z,6.80
2019-01-16T06:11:46.806Z,6.80
2019-01-16T06:13:10.963Z,6.80
2019-01-16T06:14:37.846Z,6.80
2019-01-16T06:16:04.996Z,6.80
2019-01-16T06:17:28.043Z,6.80
2019-01-16T06:18:57.786Z,6.80
2019-01-16T06:20:22.232Z,6.80
2019-01-16T06:21:49.345Z,6.80
2019-01-16T06:23:11.779Z,6.80
2019-01-16T06:24:47.793Z,6.80
2019-01-16T06:26:13.357Z,6.80
2019-01-16T06:27:55.823Z,6.80
2019-01-16T06:29:32.379Z,6.80
2019-01-16T06:30:43.597Z,6.80
2019-01-16T06:32:25.486Z,6.80
2019-01-16T06:33:48.081Z,6.80
2019-01-16T06:35:18.327Z,6.80
2019-01-16T06:36:40.807Z,6.80
2019-01-16T06:38:03.683Z,6.80
2019-01-16T06:39:27.751Z,6.80
2019-01-16T06:41:00.077Z,6.80
2019-01-16T06:42:27.215Z,6.80
2019-01-16T06:43:50.051Z,6.80
2019-01-16T06:45:20.018Z,6.80
2019-01-16T06:46:44.316Z,6.80
2019-01-16T06:48:06.848Z,6.80
2019-01-16T06:49:30.932Z,6.80
2019-01-16T06:51:01.139Z,6.80
2019-01-16T06:52:25.420Z,6.80
2019-01-16T06:54:07.843Z,6.80
2019-01-16T06:55:30.585Z,6.80
2019-01-16T06:56:54.583Z,6.80
2019-01-16T06:58:21.260Z,6.80
2019-01-16T06:59:44.220Z,6.80
2019-01-16T07:01:20.532Z,6.80
2019-01-16T07:02:44.564Z,6.80
2019-01-16T07:04:07.271Z,6.80
2019-01-16T07:05:27.503Z,6.80
2019-01-16T07:06:54.741Z,6.80
2019-01-16T07:08:22.219Z,6.80
2019-01-16T07:09:44.893Z,6.80
2019-01-16T07:11:08.120Z,6.80
2019-01-16T07:12:32.271Z,6.80
2019-01-16T07:13:54.695Z,6.80
2019-01-16T07:15:18.058Z,6.80
2019-01-16T07:16:42.046Z,6.80
2019-01-16T07:18:04.085Z,6.80
2019-01-16T07:19:34.781Z,6.80
2019-01-16T07:20:52.564Z,6.80
2019-01-16T07:22:20.113Z,6.70
2019-01-16T07:23:42.566Z,6.80
2019-01-16T07:25:04.990Z,6.80
2019-01-16T07:26:41.369Z,6.80
2019-01-16T07:28:10.809Z,6.80
2019-01-16T07:29:37.835Z,6.80
2019-01-16T07:31:20.125Z,6.80
2019-01-16T07:32:42.670Z,6.80
2019-01-16T07:34:05.440Z,6.80
2019-01-16T07:35:34.986Z,6.80
2019-01-16T07:37:07.662Z,6.70
2019-01-16T07:38:31.548Z,6.80
2019-01-16T07:39:52.471Z,6.80
2019-01-16T07:41:15.391Z,6.80
2019-01-16T07:42:37.683Z,6.70
2019-01-16T07:44:11.026Z,6.80
2019-01-16T07:45:35.912Z,6.80
2019-01-16T07:47:11.933Z,6.70
2019-01-16T07:48:45.258Z,6.70
2019-01-16T07:50:16.963Z,6.70
2019-01-16T07:51:33.650Z,6.70
2019-01-16T07:53:00.441Z,6.70
2019-01-16T07:54:23.467Z,6.70
2019-01-16T07:55:45.849Z,6.70
2019-01-16T07:57:08.195Z,6.70
2019-01-16T07:58:34.692Z,6.70
2019-01-16T07:59:47.996Z,6.70
2019-01-16T08:01:30.044Z,6.70
2019-01-16T08:02:54.004Z,6.70
2019-01-16T08:04:20.743Z,6.70
2019-01-16T08:05:43.458Z,6.70
2019-01-16T08:07:10.693Z,6.70
2019-01-16T08:08:25.188Z,6.70
2019-01-16T08:09:58.068Z,6.70
2019-01-16T08:11:26.321Z,6.70
2019-01-16T08:12:56.707Z,6.70
2019-01-16T08:14:26.830Z,6.70
2019-01-16T08:15:59.448Z,6.70
2019-01-16T08:17:22.283Z,6.70
2019-01-16T08:18:44.776Z,6.70
2019-01-16T08:20:12.373Z,6.60
2019-01-16T08:21:34.998Z,6.60
2019-01-16T08:22:51.225Z,6.60
2019-01-16T08:24:11.350Z,6.60
2019-01-16T08:25:38.765Z,6.60
2019-01-16T08:27:11.929Z,6.60
2019-01-16T08:28:34.168Z,6.60
2019-01-16T08:30:07.095Z,6.60
2019-01-16T08:31:31.000Z,6.70
2019-01-16T08:32:53.787Z,6.70
2019-01-16T08:34:17.651Z,6.70
2019-01-16T08:35:45.980Z,6.70
2019-01-16T08:37:12.675Z,6.70
2019-01-16T08:38:36.967Z,6.60
2019-01-16T08:39:59.751Z,6.60
2019-01-16T08:41:17.946Z,6.60
2019-01-16T08:42:54.237Z,6.70
2019-01-16T08:44:13.912Z,6.70
2019-01-16T08:45:44.715Z,6.60
2019-01-16T08:47:11.756Z,6.70
2019-01-16T08:48:35.886Z,6.60
2019-01-16T08:49:53.402Z,6.70
2019-01-16T08:51:09.202Z,6.70
2019-01-16T08:52:31.509Z,6.70
2019-01-16T08:54:07.575Z,6.60
2019-01-16T08:55:30.372Z,6.70
2019-01-16T08:56:52.514Z,6.60
2019-01-16T08:58:16.721Z,6.60
2019-01-16T08:59:47.042Z,6.60
2019-01-16T09:01:16.548Z,6.60
2019-01-16T09:02:43.569Z,6.60
2019-01-16T09:04:04.683Z,6.70
2019-01-16T09:05:22.408Z,6.60
2019-01-16T09:06:58.652Z,6.70
2019-01-16T09:08:23.171Z,6.70
2019-01-16T09:09:45.583Z,6.70
2019-01-16T09:11:08.238Z,6.70
2019-01-16T09:12:37.918Z,6.70
2019-01-16T09:13:59.931Z,6.70
2019-01-16T09:15:20.877Z,6.70
2019-01-16T09:16:35.312Z,6.70
2019-01-16T09:18:02.160Z,6.70
2019-01-16T09:19:27.714Z,6.60
2019-01-16T09:21:00.319Z,6.60
2019-01-16T09:22:36.666Z,6.60
2019-01-16T09:24:06.862Z,6.70
2019-01-16T09:25:38.432Z,6.70
2019-01-16T09:27:20.870Z,6.60
2019-01-16T09:28:43.218Z,6.70
2019-01-16T09:30:09.079Z,6.60
2019-01-16T09:31:39.860Z,6.60
2019-01-16T09:33:07.176Z,6.60
2019-01-16T09:34:36.800Z,6.60
2019-01-16T09:35:51.378Z,6.60
2019-01-16T09:37:24.329Z,6.60
2019-01-16T09:39:00.435Z,6.60
2019-01-16T09:40:28.406Z,6.60
2019-01-16T09:42:01.582Z,6.60
2019-01-16T09:43:24.363Z,6.60
2019-01-16T09:44:54.040Z,6.60
2019-01-16T09:46:21.251Z,6.60
2019-01-16T09:48:03.242Z,6.60
2019-01-16T09:49:31.587Z,6.60
2019-01-16T09:51:04.812Z,6.60
2019-01-16T09:52:27.481Z,6.60
2019-01-16T09:54:03.504Z,6.60
2019-01-16T09:55:28.216Z,6.60
2019-01-16T09:56:52.203Z,6.60
2019-01-16T09:58:34.335Z,6.60
2019-01-16T10:00:01.067Z,6.60
2019-01-16T10:01:27.939Z,6.60
2019-01-16T10:02:51.744Z,6.60
2019-01-16T10:04:25.043Z,6.70
2019-01-16T10:05:47.798Z,6.60
2019-01-16T10:07:14.963Z,6.60
2019-01-16T10:08:41.605Z,6.70
2019-01-16T10:10:14.241Z,6.70
2019-01-16T10:11:38.276Z,6.70
2019-01-16T10:13:08.316Z,6.60
2019-01-16T10:14:30.822Z,6.60
2019-01-16T10:16:00.771Z,6.60
2019-01-16T10:17:43.223Z,6.70
2019-01-16T10:19:00.982Z,6.70
2019-01-16T10:20:24.456Z,6.60
2019-01-16T10:21:50.964Z,6.60
2019-01-16T10:23:02.218Z,6.60
2019-01-16T10:24:27.386Z,6.60
2019-01-16T10:25:40.707Z,6.60
2019-01-16T10:27:03.098Z,6.60
2019-01-16T10:28:23.673Z,6.60
2019-01-16T10:29:49.979Z,6.60
2019-01-16T10:31:16.670Z,6.60
2019-01-16T10:32:52.778Z,6.60
2019-01-16T10:34:16.484Z,6.60
2019-01-16T10:35:43.260Z,6.60
2019-01-16T10:37:14.475Z,6.60
2019-01-16T10:38:36.901Z,6.70
2019-01-16T10:40:15.460Z,6.70
2019-01-16T10:41:57.695Z,6.60
2019-01-16T10:43:27.683Z,6.60
2019-01-16T10:44:51.529Z,6.70
2019-01-16T10:46:09.559Z,6.70
2019-01-16T10:47:34.467Z,6.70
2019-01-16T10:49:16.699Z,6.70
2019-01-16T10:50:40.598Z,6.80
2019-01-16T10:52:03.203Z,6.70
2019-01-16T10:53:25.679Z,6.70
2019-01-16T10:54:50.675Z,6.70
2019-01-16T10:56:32.597Z,6.70
2019-01-16T10:57:55.551Z,6.70
2019-01-16T10:59:26.151Z,6.70
2019-01-16T11:00:54.858Z,6.70
2019-01-16T11:02:17.170Z,6.80
2019-01-16T11:03:40.125Z,6.80
2019-01-16T11:05:07.335Z,6.80
2019-01-16T11:06:30.275Z,6.70
2019-01-16T11:07:54.167Z,6.70
2019-01-16T11:09:30.256Z,6.70
2019-01-16T11:10:47.402Z,6.70
2019-01-16T11:12:09.841Z,6.80
2019-01-16T11:13:32.476Z,6.80
2019-01-16T11:14:54.577Z,6.70
2019-01-16T11:16:18.282Z,6.80
2019-01-16T11:17:33.670Z,6.80
2019-01-16T11:19:15.761Z,6.80
2019-01-16T11:20:48.498Z,6.80
2019-01-16T11:22:21.263Z,6.80
2019-01-16T11:23:44.161Z,6.80
2019-01-16T11:25:03.826Z,6.80
2019-01-16T11:26:26.497Z,6.80
2019-01-16T11:27:41.690Z,6.90
2019-01-16T11:29:08.906Z,6.90
2019-01-16T11:30:33.037Z,6.90
2019-01-16T11:31:59.829Z,6.90
2019-01-16T11:33:27.044Z,7.00
2019-01-16T11:34:49.667Z,7.00
2019-01-16T11:36:28.928Z,6.90
2019-01-16T11:37:53.390Z,6.90
2019-01-16T11:39:23.649Z,6.80
2019-01-16T11:41:02.243Z,6.80
2019-01-16T11:42:44.719Z,6.80
2019-01-16T11:44:08.276Z,6.80
2019-01-16T11:45:35.078Z,6.80
2019-01-16T11:46:57.906Z,6.80
2019-01-16T11:48:27.711Z,6.80
2019-01-16T11:50:07.207Z,6.80
2019-01-16T11:51:33.645Z,6.70
2019-01-16T11:53:07.972Z,6.70
2019-01-16T11:54:32.124Z,6.70
2019-01-16T11:55:51.586Z,6.70
2019-01-16T11:57:18.713Z,6.60
2019-01-16T11:58:32.673Z,6.60
2019-01-16T11:59:49.603Z,6.60
2019-01-16T12:01:25.918Z,6.60
2019-01-16T12:02:56.264Z,6.60
2019-01-16T12:04:19.045Z,6.60
2019-01-16T12:05:55.119Z,6.60
2019-01-16T12:07:31.414Z,6.60
2019-01-16T12:08:45.546Z,6.60
2019-01-16T12:10:21.580Z,6.60
2019-01-16T12:11:54.554Z,6.60
2019-01-16T12:13:27.790Z,6.60
2019-01-16T12:14:52.301Z,6.60
2019-01-16T12:16:14.394Z,6.60
2019-01-16T12:17:29.763Z,6.60
2019-01-16T12:19:09.192Z,6.60
2019-01-16T12:20:33.363Z,6.60
2019-01-16T12:21:57.274Z,6.60
2019-01-16T12:23:20.055Z,6.60
2019-01-16T12:24:42.772Z,6.60
2019-01-16T12:26:18.255Z,6.60
2019-01-16T12:27:42.705Z,6.60
2019-01-16T12:29:22.339Z,6.60
2019-01-16T12:30:52.608Z,6.50
2019-01-16T12:32:19.716Z,6.50
2019-01-16T12:33:52.951Z,6.60
2019-01-16T12:35:35.872Z,6.60
2019-01-16T12:36:59.876Z,6.60
2019-01-16T12:38:15.809Z,6.50
2019-01-16T12:39:38.595Z,6.60
2019-01-16T12:41:21.089Z,6.60
2019-01-16T12:42:43.877Z,6.60
2019-01-16T12:44:14.001Z,6.50
2019-01-16T12:45:43.716Z,6.50
2019-01-16T12:47:06.276Z,6.60
2019-01-16T12:48:45.356Z,6.60
2019-01-16T12:50:24.742Z,6.60
2019-01-16T12:51:54.762Z,6.60
2019-01-16T12:53:07.282Z,6.50
2019-01-16T12:54:26.605Z,6.60
2019-01-16T12:55:48.951Z,6.60
2019-01-16T12:57:19.162Z,6.60
2019-01-16T12:58:46.150Z,6.60
2019-01-16T13:00:18.689Z,6.60
2019-01-16T13:01:38.068Z,6.60
2019-01-16T13:03:13.671Z,6.60
2019-01-16T13:04:48.628Z,6.50
2019-01-16T13:06:11.074Z,6.60
2019-01-16T13:07:47.184Z,6.50
2019-01-16T13:09:10.070Z,6.50
2019-01-16T13:10:36.922Z,6.60
2019-01-16T13:12:10.159Z,6.60
2019-01-16T13:13:34.335Z,6.60
2019-01-16T13:14:47.687Z,6.60
2019-01-16T13:16:20.942Z,6.60
2019-01-16T13:18:00.107Z,6.50
2019-01-16T13:19:30.302Z,6.50
2019-01-16T13:20:53.167Z,6.60
2019-01-16T13:22:29.193Z,6.60
2019-01-16T13:23:56.428Z,6.70
2019-01-16T13:25:19.193Z,6.60
2019-01-16T13:26:40.248Z,6.60
2019-01-16T13:28:07.012Z,6.60
2019-01-16T13:29:37.648Z,6.60
2019-01-16T13:31:00.498Z,6.60
2019-01-16T13:32:26.560Z,6.60
2019-01-16T13:33:39.794Z,6.60
2019-01-16T13:35:02.589Z,6.60
2019-01-16T13:36:41.623Z,6.60
2019-01-16T13:38:04.617Z,6.60
2019-01-16T13:39:43.130Z,6.60
2019-01-16T13:41:01.065Z,6.70
2019-01-16T13:42:18.535Z,6.60
2019-01-16T13:43:44.660Z,6.60
2019-01-16T13:45:12.319Z,6.60
2019-01-16T13:46:29.138Z,6.60
2019-01-16T13:47:59.147Z,6.60
2019-01-16T13:49:31.952Z,6.60
2019-01-16T13:50:55.807Z,6.60
2019-01-16T13:52:15.741Z,6.60
2019-01-16T13:53:44.672Z,6.60
2019-01-16T13:55:09.101Z,6.60
2019-01-16T13:56:33.259Z,6.60
2019-01-16T13:57:55.544Z,6.60
2019-01-16T13:59:34.546Z,6.50
2019-01-16T14:00:48.919Z,6.60
2019-01-16T14:02:16.079Z,6.60
2019-01-16T14:03:32.601Z,6.60
2019-01-16T14:05:02.219Z,6.60
2019-01-16T14:06:32.183Z,6.60
2019-01-16T14:07:59.249Z,6.60
2019-01-16T14:09:25.710Z,6.60
2019-01-16T14:10:42.347Z,6.60
2019-01-16T14:12:04.602Z,6.60
2019-01-16T14:13:34.821Z,6.60
2019-01-16T14:14:57.458Z,6.60
2019-01-16T14:16:20.200Z,6.60
2019-01-16T14:17:42.767Z,6.50
2019-01-16T14:19:05.172Z,6.60
2019-01-16T14:20:22.107Z,6.60
2019-01-16T14:21:44.862Z,6.60
2019-01-16T14:23:08.938Z,6.60
2019-01-16T14:24:31.810Z,6.60
2019-01-16T14:25:54.321Z,6.60
2019-01-16T14:27:18.291Z,6.60
2019-01-16T14:28:45.455Z,6.60
2019-01-16T14:30:12.719Z,6.60
2019-01-16T14:31:36.842Z,6.60
2019-01-16T14:33:03.999Z,6.60
2019-01-16T14:34:40.303Z,6.60
2019-01-16T14:36:07.419Z,6.60
2019-01-16T14:37:40.199Z,6.60
2019-01-16T14:39:06.575Z,6.60
2019-01-16T14:40:31.075Z,6.60
2019-01-16T14:41:54.072Z,6.60
2019-01-16T14:43:36.114Z,6.60
2019-01-16T14:44:58.252Z,6.60
2019-01-16T14:46:20.635Z,6.60
2019-01-16T14:47:37.246Z,6.60
2019-01-16T14:49:01.448Z,6.60
2019-01-16T14:50:25.249Z,6.60
2019-01-16T14:51:59.729Z,6.60
2019-01-16T14:53:14.735Z,6.60
2019-01-16T14:54:48.333Z,6.60
2019-01-16T14:56:11.018Z,6.60
2019-01-16T14:57:40.982Z,6.60
2019-01-16T14:59:13.847Z,6.60
2019-01-16T15:00:36.792Z,6.60
2019-01-16T15:01:56.066Z,6.60
2019-01-16T15:03:18.559Z,6.60
2019-01-16T15:04:46.611Z,6.60
2019-01-16T15:06:10.363Z,6.60
2019-01-16T15:07:26.047Z,6.60
2019-01-16T15:08:50.234Z,6.60
2019-01-16T15:10:08.297Z,6.60
2019-01-16T15:11:31.219Z,6.60
2019-01-16T15:13:06.235Z,6.60
2019-01-16T15:14:30.087Z,6.60
2019-01-16T15:15:54.226Z,6.60
2019-01-16T15:17:11.044Z,6.60
2019-01-16T15:18:41.259Z,6.60
2019-01-16T15:20:11.063Z,6.60
2019-01-16T15:21:40.659Z,6.60
2019-01-16T15:22:51.675Z,6.60
2019-01-16T15:24:12.656Z,6.60
2019-01-16T15:25:36.858Z,6.60
2019-01-16T15:26:53.162Z,6.60
2019-01-16T15:28:08.091Z,6.60
2019-01-16T15:29:26.798Z,6.60
2019-01-16T15:30:51.207Z,6.60
2019-01-16T15:32:11.397Z,6.60
2019-01-16T15:33:44.259Z,6.60
2019-01-16T15:35:06.864Z,6.60
2019-01-16T15:36:38.122Z,6.60
2019-01-16T15:38:05.325Z,6.60
2019-01-16T15:39:26.981Z,6.60
2019-01-16T15:40:54.035Z,6.60
2019-01-16T15:42:16.805Z,6.60
2019-01-16T15:43:40.875Z,6.60
2019-01-16T15:45:17.016Z,6.60
2019-01-16T15:46:39.570Z,6.50
2019-01-16T15:48:18.630Z,6.50
2019-01-16T15:49:45.622Z,6.50
2019-01-16T15:51:08.260Z,6.50
2019-01-16T15:52:41.217Z,6.50
2019-01-16T15:53:54.943Z,6.50
2019-01-16T15:55:22.159Z,6.50
2019-01-16T15:56:51.775Z,6.50
2019-01-16T15:58:09.878Z,6.50
2019-01-16T15:59:36.635Z,6.50
2019-01-16T16:01:18.817Z,6.50
2019-01-16T16:02:48.730Z,6.50
2019-01-16T16:04:24.994Z,6.50
2019-01-16T16:05:58.232Z,6.50
2019-01-16T16:07:22.635Z,6.50
2019-01-16T16:08:40.277Z,6.50
2019-01-16T16:10:13.368Z,6.40
2019-01-16T16:11:40.487Z,6.40
2019-01-16T16:13:10.716Z,6.40
2019-01-16T16:14:35.664Z,6.30
2019-01-16T16:16:05.609Z,6.30
2019-01-16T16:17:41.971Z,6.30
2019-01-16T16:19:14.846Z,6.30
2019-01-16T16:20:37.243Z,6.30
2019-01-16T16:22:10.307Z,6.30
2019-01-16T16:23:46.712Z,6.30
2019-01-16T16:25:14.908Z,6.30
2019-01-16T16:26:38.869Z,6.40
2019-01-16T16:28:14.900Z,6.30
2019-01-16T16:29:28.053Z,6.30
2019-01-16T16:30:51.938Z,6.30
2019-01-16T16:32:15.202Z,6.40
2019-01-16T16:33:37.501Z,6.30
2019-01-16T16:35:13.795Z,6.30
2019-01-16T16:36:40.880Z,6.30
2019-01-16T16:38:04.936Z,6.30
2019-01-16T16:39:47.254Z,6.30
2019-01-16T16:41:21.234Z,6.30
2019-01-16T16:42:41.002Z,6.30
2019-01-16T16:44:05.323Z,6.20
2019-01-16T16:45:29.452Z,6.20
2019-01-16T16:46:47.819Z,6.20
2019-01-16T16:48:11.050Z,6.30
2019-01-16T16:49:22.605Z,6.20
2019-01-16T16:50:43.288Z,6.20
2019-01-16T16:52:13.534Z,6.20
2019-01-16T16:53:37.656Z,6.30
2019-01-16T16:55:08.016Z,6.20
2019-01-16T16:56:40.890Z,6.20
2019-01-16T16:58:03.696Z,6.20
2019-01-16T16:59:44.002Z,6.20
2019-01-16T17:01:20.340Z,6.20
2019-01-16T17:02:45.111Z,6.30
2019-01-16T17:04:15.100Z,6.30
2019-01-16T17:05:38.007Z,6.30
2019-01-16T17:07:14.090Z,6.30
2019-01-16T17:08:36.498Z,6.20
2019-01-16T17:10:08.967Z,6.20
2019-01-16T17:11:37.492Z,6.20
2019-01-16T17:13:10.432Z,6.20
2019-01-16T17:14:25.791Z,6.20
2019-01-16T17:15:49.657Z,6.20
2019-01-16T17:17:11.882Z,6.20
2019-01-16T17:18:39.700Z,6.10
2019-01-16T17:20:15.963Z,6.20
2019-01-16T17:21:38.418Z,6.20
2019-01-16T17:23:07.894Z,6.20
2019-01-16T17:24:50.171Z,6.10
2019-01-16T17:26:12.331Z,6.10
2019-01-16T17:27:36.549Z,6.10
2019-01-16T17:29:15.884Z,6.00
2019-01-16T17:30:49.142Z,6.00
2019-01-16T17:32:28.277Z,6.00
2019-01-16T17:33:45.263Z,6.00
2019-01-16T17:35:12.509Z,6.00
2019-01-16T17:36:51.710Z,6.00
2019-01-16T17:38:15.805Z,6.00
2019-01-16T17:39:38.238Z,6.00
2019-01-16T17:41:00.998Z,6.00
2019-01-16T17:42:27.953Z,6.00
2019-01-16T17:43:50.910Z,6.00
2019-01-16T17:45:32.748Z,6.00
2019-01-16T17:46:55.448Z,5.90
2019-01-16T17:48:25.580Z,5.90
2019-01-16T17:49:50.997Z,5.90
2019-01-16T17:51:13.539Z,5.90
2019-01-16T17:52:49.782Z,5.90
2019-01-16T17:54:22.824Z,5.90
2019-01-16T17:55:48.918Z,5.90
2019-01-16T17:57:12.070Z,5.90
2019-01-16T17:58:34.554Z,5.90
2019-01-16T18:00:00.992Z,5.90
2019-01-16T18:01:40.361Z,5.90
2019-01-16T18:02:59.598Z,5.90
2019-01-16T18:04:16.251Z,5.90
2019-01-16T18:05:49.391Z,5.90
2019-01-16T18:07:09.200Z,5.90
2019-01-16T18:08:48.087Z,5.90
2019-01-16T18:10:10.933Z,5.90
2019-01-16T18:11:34.962Z,5.90
2019-01-16T18:12:57.919Z,5.90
2019-01-16T18:14:28.203Z,5.90
2019-01-16T18:16:01.030Z,5.90
2019-01-16T18:17:23.603Z,5.90
2019-01-16T18:18:53.967Z,5.90
2019-01-16T18:20:26.866Z,5.90
2019-01-16T18:21:47.692Z,5.90
2019-01-16T18:23:11.624Z,5.90
2019-01-16T18:24:33.927Z,5.90
2019-01-16T18:25:57.400Z,5.90
2019-01-16T18:27:07.767Z,5.90
2019-01-16T18:28:34.689Z,5.90
2019-01-16T18:29:49.998Z,6.00
2019-01-16T18:31:08.869Z,5.90
2019-01-16T18:32:23.627Z,5.90
2019-01-16T18:33:47.438Z,5.90
2019-01-16T18:35:17.886Z,5.90
2019-01-16T18:36:36.314Z,6.00
2019-01-16T18:37:58.857Z,6.00
2019-01-16T18:39:31.992Z,6.00
2019-01-16T18:40:54.938Z,6.00
2019-01-16T18:42:17.516Z,6.00
2019-01-16T18:43:50.414Z,6.00
2019-01-16T18:45:10.790Z,6.00
2019-01-16T18:46:43.945Z,6.00
2019-01-16T18:48:06.822Z,6.00
2019-01-16T18:49:27.451Z,6.00
2019-01-16T18:51:10.035Z,6.00
2019-01-16T18:52:34.037Z,6.00
2019-01-16T18:54:04.374Z,6.00
2019-01-16T18:55:24.414Z,6.00
2019-01-16T18:56:54.634Z,6.10
2019-01-16T18:58:17.124Z,6.10
2019-01-16T18:59:41.105Z,6.10
2019-01-16T19:01:00.966Z,6.10
2019-01-16T19:02:23.417Z,6.10
2019-01-16T19:04:02.521Z,6.10
2019-01-16T19:05:35.634Z,6.10
2019-01-16T19:06:59.873Z,6.10
2019-01-16T19:08:29.832Z,6.10
2019-01-16T19:09:59.771Z,6.10
2019-01-16T19:11:26.876Z,6.20